Terminal Aerodrome Forecast
Issued by NWS

Home | Current Version | Previous Version | Text Only | Print | Product List | Glossary On
Versions: 1 2 3 4 5 6 7 8 9 10 11 12 13
000
FTAK31 PAJN 061100
TAFAKT
TAF
PAKT 061120Z 0612/0712 16006KT P6SM VCSH FEW010 BKN030
     FM070600 17005KT P6SM -RA BKN025 OVC050
      AMD LTD TO CLD VIS AND WIND 0612/0615=

USA.gov is the U.S. government's official web portal to all federal, state and local government web resources and services.